sensor_id;sensor_type;location;lat;lon;timestamp;P1;durP1;ratioP1;P2;durP2;ratioP2
17921;SDS011;9086;50.966;3.144;2023-05-16T00:00:36;8.20;;;2.30;;
17921;SDS011;9086;50.966;3.144;2023-05-16T00:03:03;13.30;;;2.47;;
17921;SDS011;9086;50.966;3.144;2023-05-16T00:05:30;10.70;;;2.90;;
17921;SDS011;9086;50.966;3.144;2023-05-16T00:07:56;10.03;;;2.30;;
17921;SDS011;9086;50.966;3.144;2023-05-16T00:10:22;14.53;;;3.20;;
17921;SDS011;9086;50.966;3.144;2023-05-16T00:12:48;17.27;;;2.70;;
17921;SDS011;9086;50.966;3.144;2023-05-16T00:15:17;9.87;;;2.63;;
17921;SDS011;9086;50.966;3.144;2023-05-16T00:17:44;8.00;;;2.13;;
17921;SDS011;9086;50.966;3.144;2023-05-16T00:20:11;8.43;;;3.00;;
17921;SDS011;9086;50.966;3.144;2023-05-16T00:22:41;9.13;;;3.57;;
17921;SDS011;9086;50.966;3.144;2023-05-16T00:25:07;12.33;;;2.90;;
17921;SDS011;9086;50.966;3.144;2023-05-16T00:27:33;11.80;;;2.33;;
17921;SDS011;9086;50.966;3.144;2023-05-16T00:30:00;8.83;;;2.53;;
17921;SDS011;9086;50.966;3.144;2023-05-16T00:32:26;12.57;;;2.90;;
17921;SDS011;9086;50.966;3.144;2023-05-16T00:34:53;11.23;;;3.80;;
17921;SDS011;9086;50.966;3.144;2023-05-16T00:37:19;10.73;;;2.83;;
17921;SDS011;9086;50.966;3.144;2023-05-16T00:39:45;6.70;;;1.90;;
17921;SDS011;9086;50.966;3.144;2023-05-16T00:42:10;12.57;;;2.77;;
17921;SDS011;9086;50.966;3.144;2023-05-16T00:44:36;10.87;;;2.67;;
17921;SDS011;9086;50.966;3.144;2023-05-16T00:47:03;10.00;;;2.23;;
17921;SDS011;9086;50.966;3.144;2023-05-16T00:49:29;9.00;;;2.10;;
17921;SDS011;9086;50.966;3.144;2023-05-16T00:51:56;8.00;;;2.43;;
17921;SDS011;9086;50.966;3.144;2023-05-16T00:54:23;6.77;;;2.43;;
17921;SDS011;9086;50.966;3.144;2023-05-16T00:56:53;7.77;;;2.53;;
17921;SDS011;9086;50.966;3.144;2023-05-16T00:59:20;12.90;;;2.60;;
17921;SDS011;9086;50.966;3.144;2023-05-16T01:01:46;9.30;;;2.43;;
17921;SDS011;9086;50.966;3.144;2023-05-16T01:04:12;7.47;;;1.90;;
17921;SDS011;9086;50.966;3.144;2023-05-16T01:06:38;5.17;;;2.77;;
17921;SDS011;9086;50.966;3.144;2023-05-16T01:09:05;9.40;;;2.30;;
17921;SDS011;9086;50.966;3.144;2023-05-16T01:11:42;12.20;;;2.63;;
17921;SDS011;9086;50.966;3.144;2023-05-16T01:16:43;10.63;;;2.47;;
17921;SDS011;9086;50.966;3.144;2023-05-16T01:21:55;10.53;;;2.63;;
17921;SDS011;9086;50.966;3.144;2023-05-16T01:24:29;7.67;;;2.20;;
17921;SDS011;9086;50.966;3.144;2023-05-16T01:26:58;11.97;;;2.50;;
17921;SDS011;9086;50.966;3.144;2023-05-16T01:29:25;7.13;;;2.20;;
17921;SDS011;9086;50.966;3.144;2023-05-16T01:31:51;8.77;;;3.10;;
17921;SDS011;9086;50.966;3.144;2023-05-16T01:34:17;8.43;;;2.53;;
17921;SDS011;9086;50.966;3.144;2023-05-16T01:37:05;6.73;;;2.30;;
17921;SDS011;9086;50.966;3.144;2023-05-16T01:42:18;7.20;;;2.20;;
17921;SDS011;9086;50.966;3.144;2023-05-16T01:44:51;5.30;;;1.87;;
17921;SDS011;9086;50.966;3.144;2023-05-16T01:47:21;7.23;;;2.20;;
17921;SDS011;9086;50.966;3.144;2023-05-16T01:52:39;10.20;;;2.43;;
17921;SDS011;9086;50.966;3.144;2023-05-16T01:55:10;6.83;;;2.13;;
17921;SDS011;9086;50.966;3.144;2023-05-16T01:57:39;10.70;;;2.70;;
17921;SDS011;9086;50.966;3.144;2023-05-16T02:00:07;6.60;;;1.90;;
17921;SDS011;9086;50.966;3.144;2023-05-16T02:02:33;8.00;;;2.60;;
17921;SDS011;9086;50.966;3.144;2023-05-16T02:04:59;10.80;;;3.97;;
17921;SDS011;9086;50.966;3.144;2023-05-16T02:07:25;7.97;;;2.27;;
17921;SDS011;9086;50.966;3.144;2023-05-16T02:09:51;9.77;;;2.40;;
17921;SDS011;9086;50.966;3.144;2023-05-16T02:12:17;9.77;;;2.43;;
17921;SDS011;9086;50.966;3.144;2023-05-16T02:14:43;16.10;;;3.10;;
17921;SDS011;9086;50.966;3.144;2023-05-16T02:17:09;9.67;;;2.47;;
17921;SDS011;9086;50.966;3.144;2023-05-16T02:19:35;6.90;;;2.17;;
17921;SDS011;9086;50.966;3.144;2023-05-16T02:22:01;7.17;;;2.23;;
17921;SDS011;9086;50.966;3.144;2023-05-16T02:24:27;4.77;;;1.80;;
17921;SDS011;9086;50.966;3.144;2023-05-16T02:26:53;6.23;;;2.27;;
17921;SDS011;9086;50.966;3.144;2023-05-16T02:29:19;5.30;;;1.63;;
17921;SDS011;9086;50.966;3.144;2023-05-16T02:31:45;8.00;;;2.40;;
17921;SDS011;9086;50.966;3.144;2023-05-16T02:34:12;5.83;;;2.00;;
17921;SDS011;9086;50.966;3.144;2023-05-16T02:36:38;8.93;;;2.53;;
17921;SDS011;9086;50.966;3.144;2023-05-16T02:39:04;6.23;;;2.13;;
17921;SDS011;9086;50.966;3.144;2023-05-16T02:41:31;12.30;;;2.40;;
17921;SDS011;9086;50.966;3.144;2023-05-16T02:43:57;11.67;;;2.90;;
17921;SDS011;9086;50.966;3.144;2023-05-16T02:46:30;9.60;;;2.40;;
17921;SDS011;9086;50.966;3.144;2023-05-16T02:48:56;6.40;;;2.23;;
17921;SDS011;9086;50.966;3.144;2023-05-16T02:51:23;7.33;;;2.27;;
17921;SDS011;9086;50.966;3.144;2023-05-16T02:53:49;6.93;;;3.20;;
17921;SDS011;9086;50.966;3.144;2023-05-16T02:56:16;9.40;;;2.47;;
17921;SDS011;9086;50.966;3.144;2023-05-16T02:58:43;6.17;;;2.40;;
17921;SDS011;9086;50.966;3.144;2023-05-16T03:01:09;10.33;;;2.60;;
17921;SDS011;9086;50.966;3.144;2023-05-16T03:03:36;8.40;;;2.80;;
17921;SDS011;9086;50.966;3.144;2023-05-16T03:06:02;12.57;;;3.33;;
17921;SDS011;9086;50.966;3.144;2023-05-16T03:08:28;8.10;;;2.87;;
17921;SDS011;9086;50.966;3.144;2023-05-16T03:10:54;7.80;;;2.70;;
17921;SDS011;9086;50.966;3.144;2023-05-16T03:13:20;7.87;;;2.40;;
17921;SDS011;9086;50.966;3.144;2023-05-16T03:15:47;7.43;;;2.93;;
17921;SDS011;9086;50.966;3.144;2023-05-16T03:18:13;10.30;;;2.80;;
17921;SDS011;9086;50.966;3.144;2023-05-16T03:20:39;8.80;;;2.33;;
17921;SDS011;9086;50.966;3.144;2023-05-16T03:23:05;11.90;;;2.63;;
17921;SDS011;9086;50.966;3.144;2023-05-16T03:25:32;6.40;;;2.73;;
17921;SDS011;9086;50.966;3.144;2023-05-16T03:27:59;4.60;;;2.33;;
17921;SDS011;9086;50.966;3.144;2023-05-16T03:30:25;4.97;;;2.10;;
17921;SDS011;9086;50.966;3.144;2023-05-16T03:32:51;14.90;;;2.40;;
17921;SDS011;9086;50.966;3.144;2023-05-16T03:35:17;13.63;;;2.77;;
17921;SDS011;9086;50.966;3.144;2023-05-16T03:37:43;7.67;;;2.73;;
17921;SDS011;9086;50.966;3.144;2023-05-16T03:40:09;9.43;;;3.07;;
17921;SDS011;9086;50.966;3.144;2023-05-16T03:42:36;9.27;;;2.70;;
17921;SDS011;9086;50.966;3.144;2023-05-16T03:45:03;7.53;;;2.53;;
17921;SDS011;9086;50.966;3.144;2023-05-16T03:47:30;8.03;;;2.90;;
17921;SDS011;9086;50.966;3.144;2023-05-16T03:49:56;6.47;;;2.30;;
17921;SDS011;9086;50.966;3.144;2023-05-16T03:52:22;7.90;;;3.00;;
17921;SDS011;9086;50.966;3.144;2023-05-16T03:54:48;7.77;;;3.37;;
17921;SDS011;9086;50.966;3.144;2023-05-16T03:57:15;6.93;;;2.50;;
17921;SDS011;9086;50.966;3.144;2023-05-16T03:59:41;7.47;;;2.60;;
17921;SDS011;9086;50.966;3.144;2023-05-16T04:02:10;8.07;;;3.23;;
17921;SDS011;9086;50.966;3.144;2023-05-16T04:04:36;10.23;;;2.90;;
17921;SDS011;9086;50.966;3.144;2023-05-16T04:07:02;8.47;;;3.00;;
17921;SDS011;9086;50.966;3.144;2023-05-16T04:09:28;6.63;;;2.73;;
17921;SDS011;9086;50.966;3.144;2023-05-16T04:11:54;5.77;;;2.30;;
17921;SDS011;9086;50.966;3.144;2023-05-16T04:14:21;7.87;;;2.63;;
17921;SDS011;9086;50.966;3.144;2023-05-16T04:16:48;3.87;;;1.93;;
17921;SDS011;9086;50.966;3.144;2023-05-16T04:19:14;4.87;;;2.60;;
17921;SDS011;9086;50.966;3.144;2023-05-16T04:21:40;9.53;;;2.50;;
17921;SDS011;9086;50.966;3.144;2023-05-16T04:24:06;6.00;;;2.73;;
17921;SDS011;9086;50.966;3.144;2023-05-16T04:26:32;7.17;;;2.67;;
17921;SDS011;9086;50.966;3.144;2023-05-16T04:28:58;6.20;;;2.17;;
17921;SDS011;9086;50.966;3.144;2023-05-16T04:31:25;6.67;;;2.47;;
17921;SDS011;9086;50.966;3.144;2023-05-16T04:33:51;6.60;;;2.80;;
17921;SDS011;9086;50.966;3.144;2023-05-16T04:36:18;9.20;;;2.63;;
17921;SDS011;9086;50.966;3.144;2023-05-16T04:38:44;11.47;;;3.00;;
17921;SDS011;9086;50.966;3.144;2023-05-16T04:41:11;6.53;;;2.70;;
17921;SDS011;9086;50.966;3.144;2023-05-16T04:43:37;8.97;;;2.97;;
17921;SDS011;9086;50.966;3.144;2023-05-16T04:46:04;5.70;;;2.40;;
17921;SDS011;9086;50.966;3.144;2023-05-16T04:48:31;9.20;;;2.53;;
17921;SDS011;9086;50.966;3.144;2023-05-16T04:50:57;10.33;;;2.93;;
17921;SDS011;9086;50.966;3.144;2023-05-16T04:53:23;9.60;;;2.73;;
17921;SDS011;9086;50.966;3.144;2023-05-16T04:55:49;5.30;;;2.57;;
17921;SDS011;9086;50.966;3.144;2023-05-16T04:58:15;4.50;;;2.57;;
17921;SDS011;9086;50.966;3.144;2023-05-16T05:00:41;7.70;;;3.10;;
17921;SDS011;9086;50.966;3.144;2023-05-16T05:03:07;7.73;;;2.67;;
17921;SDS011;9086;50.966;3.144;2023-05-16T05:05:33;7.83;;;2.40;;
17921;SDS011;9086;50.966;3.144;2023-05-16T05:08:00;8.37;;;2.90;;
17921;SDS011;9086;50.966;3.144;2023-05-16T05:10:26;7.83;;;3.10;;
17921;SDS011;9086;50.966;3.144;2023-05-16T05:12:52;7.17;;;2.60;;
17921;SDS011;9086;50.966;3.144;2023-05-16T05:15:18;6.23;;;2.53;;
17921;SDS011;9086;50.966;3.144;2023-05-16T05:17:44;13.13;;;2.20;;
17921;SDS011;9086;50.966;3.144;2023-05-16T05:20:11;8.07;;;2.53;;
17921;SDS011;9086;50.966;3.144;2023-05-16T05:22:37;5.60;;;2.37;;
17921;SDS011;9086;50.966;3.144;2023-05-16T05:25:03;6.50;;;2.73;;
17921;SDS011;9086;50.966;3.144;2023-05-16T05:27:30;8.47;;;3.13;;
17921;SDS011;9086;50.966;3.144;2023-05-16T05:29:56;4.77;;;2.20;;
17921;SDS011;9086;50.966;3.144;2023-05-16T05:32:22;6.20;;;2.73;;
17921;SDS011;9086;50.966;3.144;2023-05-16T05:34:48;10.23;;;3.30;;
17921;SDS011;9086;50.966;3.144;2023-05-16T05:37:14;12.43;;;2.93;;
17921;SDS011;9086;50.966;3.144;2023-05-16T05:39:40;6.77;;;2.67;;
17921;SDS011;9086;50.966;3.144;2023-05-16T05:42:06;7.67;;;3.10;;
17921;SDS011;9086;50.966;3.144;2023-05-16T05:44:32;13.30;;;2.80;;
17921;SDS011;9086;50.966;3.144;2023-05-16T05:46:58;12.10;;;2.67;;
17921;SDS011;9086;50.966;3.144;2023-05-16T05:49:27;5.13;;;2.53;;
17921;SDS011;9086;50.966;3.144;2023-05-16T05:51:54;7.27;;;2.73;;
17921;SDS011;9086;50.966;3.144;2023-05-16T05:54:20;10.40;;;2.60;;
17921;SDS011;9086;50.966;3.144;2023-05-16T05:56:46;9.07;;;2.80;;
17921;SDS011;9086;50.966;3.144;2023-05-16T05:59:12;8.17;;;2.20;;
17921;SDS011;9086;50.966;3.144;2023-05-16T06:01:38;13.60;;;2.40;;
17921;SDS011;9086;50.966;3.144;2023-05-16T06:04:04;12.40;;;2.53;;
17921;SDS011;9086;50.966;3.144;2023-05-16T06:06:30;8.70;;;2.77;;
17921;SDS011;9086;50.966;3.144;2023-05-16T06:08:57;9.47;;;2.50;;
17921;SDS011;9086;50.966;3.144;2023-05-16T06:11:23;5.70;;;2.10;;
17921;SDS011;9086;50.966;3.144;2023-05-16T06:13:52;9.37;;;1.97;;
17921;SDS011;9086;50.966;3.144;2023-05-16T06:16:18;11.53;;;3.30;;
17921;SDS011;9086;50.966;3.144;2023-05-16T06:18:44;4.93;;;2.10;;
17921;SDS011;9086;50.966;3.144;2023-05-16T06:21:10;6.77;;;1.93;;
17921;SDS011;9086;50.966;3.144;2023-05-16T06:23:36;9.50;;;2.00;;
17921;SDS011;9086;50.966;3.144;2023-05-16T06:26:02;11.77;;;2.10;;
17921;SDS011;9086;50.966;3.144;2023-05-16T06:28:28;9.93;;;2.23;;
17921;SDS011;9086;50.966;3.144;2023-05-16T06:30:54;4.57;;;1.87;;
17921;SDS011;9086;50.966;3.144;2023-05-16T06:33:20;5.53;;;1.60;;
17921;SDS011;9086;50.966;3.144;2023-05-16T06:35:46;6.13;;;1.80;;
17921;SDS011;9086;50.966;3.144;2023-05-16T06:38:13;10.50;;;1.70;;
17921;SDS011;9086;50.966;3.144;2023-05-16T06:40:39;3.27;;;1.47;;
17921;SDS011;9086;50.966;3.144;2023-05-16T06:43:05;8.07;;;2.10;;
17921;SDS011;9086;50.966;3.144;2023-05-16T06:45:31;6.67;;;2.47;;
17921;SDS011;9086;50.966;3.144;2023-05-16T06:47:57;5.80;;;1.43;;
17921;SDS011;9086;50.966;3.144;2023-05-16T06:50:23;8.00;;;1.57;;
17921;SDS011;9086;50.966;3.144;2023-05-16T06:52:49;7.07;;;1.63;;
17921;SDS011;9086;50.966;3.144;2023-05-16T06:55:15;2.47;;;1.53;;
17921;SDS011;9086;50.966;3.144;2023-05-16T06:57:41;5.40;;;1.37;;
17921;SDS011;9086;50.966;3.144;2023-05-16T07:00:07;6.80;;;1.73;;
17921;SDS011;9086;50.966;3.144;2023-05-16T07:02:34;7.47;;;1.80;;
17921;SDS011;9086;50.966;3.144;2023-05-16T07:05:00;5.20;;;1.40;;
17921;SDS011;9086;50.966;3.144;2023-05-16T07:07:26;6.50;;;1.37;;
17921;SDS011;9086;50.966;3.144;2023-05-16T07:09:52;5.47;;;1.27;;
17921;SDS011;9086;50.966;3.144;2023-05-16T07:12:18;4.83;;;1.27;;
17921;SDS011;9086;50.966;3.144;2023-05-16T07:14:44;5.73;;;1.40;;
17921;SDS011;9086;50.966;3.144;2023-05-16T07:17:11;5.93;;;1.93;;
17921;SDS011;9086;50.966;3.144;2023-05-16T07:19:37;7.40;;;1.57;;
17921;SDS011;9086;50.966;3.144;2023-05-16T07:22:03;4.23;;;1.37;;
17921;SDS011;9086;50.966;3.144;2023-05-16T07:24:29;5.50;;;1.20;;
17921;SDS011;9086;50.966;3.144;2023-05-16T07:26:55;4.80;;;1.50;;
17921;SDS011;9086;50.966;3.144;2023-05-16T07:29:21;7.13;;;1.63;;
17921;SDS011;9086;50.966;3.144;2023-05-16T07:31:47;5.13;;;1.03;;
17921;SDS011;9086;50.966;3.144;2023-05-16T07:34:13;8.23;;;1.80;;
17921;SDS011;9086;50.966;3.144;2023-05-16T07:36:39;5.93;;;1.70;;
17921;SDS011;9086;50.966;3.144;2023-05-16T07:39:06;6.30;;;1.30;;
17921;SDS011;9086;50.966;3.144;2023-05-16T07:41:32;3.30;;;1.40;;
17921;SDS011;9086;50.966;3.144;2023-05-16T07:43:58;3.83;;;1.27;;
17921;SDS011;9086;50.966;3.144;2023-05-16T07:46:24;10.23;;;1.40;;
17921;SDS011;9086;50.966;3.144;2023-05-16T07:48:50;6.13;;;1.73;;
17921;SDS011;9086;50.966;3.144;2023-05-16T07:51:16;6.23;;;1.13;;
17921;SDS011;9086;50.966;3.144;2023-05-16T07:53:42;4.00;;;1.17;;
17921;SDS011;9086;50.966;3.144;2023-05-16T07:56:08;5.50;;;1.03;;
17921;SDS011;9086;50.966;3.144;2023-05-16T07:58:34;3.97;;;1.03;;
17921;SDS011;9086;50.966;3.144;2023-05-16T08:01:00;6.53;;;0.83;;
17921;SDS011;9086;50.966;3.144;2023-05-16T08:03:26;5.87;;;1.50;;
17921;SDS011;9086;50.966;3.144;2023-05-16T08:05:52;7.63;;;1.33;;
17921;SDS011;9086;50.966;3.144;2023-05-16T08:08:18;2.93;;;1.00;;
17921;SDS011;9086;50.966;3.144;2023-05-16T08:10:44;4.00;;;1.33;;
17921;SDS011;9086;50.966;3.144;2023-05-16T08:13:11;6.37;;;1.60;;
17921;SDS011;9086;50.966;3.144;2023-05-16T08:15:37;7.03;;;1.73;;
17921;SDS011;9086;50.966;3.144;2023-05-16T08:18:03;6.57;;;1.50;;
17921;SDS011;9086;50.966;3.144;2023-05-16T08:20:31;6.50;;;1.50;;
17921;SDS011;9086;50.966;3.144;2023-05-16T08:22:57;6.13;;;1.53;;
17921;SDS011;9086;50.966;3.144;2023-05-16T08:25:23;5.20;;;1.40;;
17921;SDS011;9086;50.966;3.144;2023-05-16T08:27:49;6.90;;;1.30;;
17921;SDS011;9086;50.966;3.144;2023-05-16T08:30:15;3.40;;;0.90;;
17921;SDS011;9086;50.966;3.144;2023-05-16T08:32:41;2.27;;;1.10;;
17921;SDS011;9086;50.966;3.144;2023-05-16T08:35:07;4.77;;;1.10;;
17921;SDS011;9086;50.966;3.144;2023-05-16T08:37:34;6.00;;;1.00;;
17921;SDS011;9086;50.966;3.144;2023-05-16T08:40:00;5.93;;;1.53;;
17921;SDS011;9086;50.966;3.144;2023-05-16T08:42:29;7.87;;;1.40;;
17921;SDS011;9086;50.966;3.144;2023-05-16T08:44:55;4.33;;;1.00;;
17921;SDS011;9086;50.966;3.144;2023-05-16T08:47:21;7.57;;;1.10;;
17921;SDS011;9086;50.966;3.144;2023-05-16T08:49:50;8.10;;;1.53;;
17921;SDS011;9086;50.966;3.144;2023-05-16T08:52:19;5.73;;;1.60;;
17921;SDS011;9086;50.966;3.144;2023-05-16T08:54:46;6.33;;;1.50;;
17921;SDS011;9086;50.966;3.144;2023-05-16T08:57:12;9.83;;;2.03;;
17921;SDS011;9086;50.966;3.144;2023-05-16T08:59:39;7.87;;;1.60;;
17921;SDS011;9086;50.966;3.144;2023-05-16T09:02:05;3.67;;;1.40;;
17921;SDS011;9086;50.966;3.144;2023-05-16T09:04:31;4.63;;;1.07;;
17921;SDS011;9086;50.966;3.144;2023-05-16T09:06:58;4.87;;;1.33;;
17921;SDS011;9086;50.966;3.144;2023-05-16T09:09:24;7.30;;;1.30;;
17921;SDS011;9086;50.966;3.144;2023-05-16T09:11:50;3.60;;;1.10;;
17921;SDS011;9086;50.966;3.144;2023-05-16T09:14:16;2.30;;;0.63;;
17921;SDS011;9086;50.966;3.144;2023-05-16T09:16:43;3.77;;;0.97;;
17921;SDS011;9086;50.966;3.144;2023-05-16T09:19:11;2.70;;;1.13;;
17921;SDS011;9086;50.966;3.144;2023-05-16T09:21:38;3.67;;;1.00;;
17921;SDS011;9086;50.966;3.144;2023-05-16T09:24:08;2.77;;;1.00;;
17921;SDS011;9086;50.966;3.144;2023-05-16T09:26:35;4.77;;;0.80;;
17921;SDS011;9086;50.966;3.144;2023-05-16T09:29:11;7.97;;;1.10;;
17921;SDS011;9086;50.966;3.144;2023-05-16T09:31:37;3.17;;;0.77;;
17921;SDS011;9086;50.966;3.144;2023-05-16T09:34:06;3.93;;;0.80;;
17921;SDS011;9086;50.966;3.144;2023-05-16T09:36:33;5.63;;;1.07;;
17921;SDS011;9086;50.966;3.144;2023-05-16T09:38:59;2.33;;;1.03;;
17921;SDS011;9086;50.966;3.144;2023-05-16T09:41:25;4.13;;;1.23;;
17921;SDS011;9086;50.966;3.144;2023-05-16T09:43:51;3.30;;;1.03;;
17921;SDS011;9086;50.966;3.144;2023-05-16T09:46:17;5.40;;;1.17;;
17921;SDS011;9086;50.966;3.144;2023-05-16T09:48:44;6.17;;;1.33;;
17921;SDS011;9086;50.966;3.144;2023-05-16T09:51:11;3.13;;;1.03;;
17921;SDS011;9086;50.966;3.144;2023-05-16T09:53:37;5.23;;;1.10;;
17921;SDS011;9086;50.966;3.144;2023-05-16T09:58:32;8.87;;;2.93;;
17921;SDS011;9086;50.966;3.144;2023-05-16T10:00:58;4.50;;;1.40;;
17921;SDS011;9086;50.966;3.144;2023-05-16T10:03:25;4.50;;;1.43;;
17921;SDS011;9086;50.966;3.144;2023-05-16T10:05:52;7.30;;;1.70;;
17921;SDS011;9086;50.966;3.144;2023-05-16T10:08:19;4.33;;;1.80;;
17921;SDS011;9086;50.966;3.144;2023-05-16T10:10:45;10.37;;;4.27;;
17921;SDS011;9086;50.966;3.144;2023-05-16T10:13:14;3.17;;;1.10;;
17921;SDS011;9086;50.966;3.144;2023-05-16T10:15:40;4.83;;;1.30;;
17921;SDS011;9086;50.966;3.144;2023-05-16T10:18:06;6.57;;;1.00;;
17921;SDS011;9086;50.966;3.144;2023-05-16T10:20:37;3.13;;;1.10;;
17921;SDS011;9086;50.966;3.144;2023-05-16T10:23:03;3.80;;;0.90;;
17921;SDS011;9086;50.966;3.144;2023-05-16T10:25:34;2.17;;;0.90;;
17921;SDS011;9086;50.966;3.144;2023-05-16T10:28:01;2.17;;;0.87;;
17921;SDS011;9086;50.966;3.144;2023-05-16T10:30:28;2.40;;;1.00;;
17921;SDS011;9086;50.966;3.144;2023-05-16T10:32:55;5.57;;;1.23;;
17921;SDS011;9086;50.966;3.144;2023-05-16T10:35:21;3.43;;;1.10;;
17921;SDS011;9086;50.966;3.144;2023-05-16T10:37:48;2.87;;;1.13;;
17921;SDS011;9086;50.966;3.144;2023-05-16T10:40:15;4.40;;;1.20;;
17921;SDS011;9086;50.966;3.144;2023-05-16T10:42:57;3.53;;;0.90;;
17921;SDS011;9086;50.966;3.144;2023-05-16T10:45:23;2.73;;;1.10;;
17921;SDS011;9086;50.966;3.144;2023-05-16T10:47:53;3.43;;;0.97;;
17921;SDS011;9086;50.966;3.144;2023-05-16T10:50:29;2.77;;;0.90;;
17921;SDS011;9086;50.966;3.144;2023-05-16T10:52:56;2.70;;;0.97;;
17921;SDS011;9086;50.966;3.144;2023-05-16T10:55:38;4.87;;;1.30;;
17921;SDS011;9086;50.966;3.144;2023-05-16T10:58:04;4.63;;;0.97;;
17921;SDS011;9086;50.966;3.144;2023-05-16T11:00:30;5.10;;;1.10;;
17921;SDS011;9086;50.966;3.144;2023-05-16T11:03:05;2.90;;;0.80;;
17921;SDS011;9086;50.966;3.144;2023-05-16T11:05:34;4.03;;;0.93;;
17921;SDS011;9086;50.966;3.144;2023-05-16T11:08:05;2.67;;;1.20;;
17921;SDS011;9086;50.966;3.144;2023-05-16T11:10:32;1.67;;;0.80;;
17921;SDS011;9086;50.966;3.144;2023-05-16T11:13:06;5.90;;;1.53;;
17921;SDS011;9086;50.966;3.144;2023-05-16T11:15:33;5.67;;;0.83;;
17921;SDS011;9086;50.966;3.144;2023-05-16T11:18:02;5.87;;;0.93;;
17921;SDS011;9086;50.966;3.144;2023-05-16T11:20:30;3.17;;;0.93;;
17921;SDS011;9086;50.966;3.144;2023-05-16T11:25:41;2.97;;;0.50;;
17921;SDS011;9086;50.966;3.144;2023-05-16T11:28:09;8.03;;;1.27;;
17921;SDS011;9086;50.966;3.144;2023-05-16T11:30:40;3.50;;;0.70;;
17921;SDS011;9086;50.966;3.144;2023-05-16T11:33:06;2.57;;;0.90;;
17921;SDS011;9086;50.966;3.144;2023-05-16T11:35:32;4.43;;;1.00;;
17921;SDS011;9086;50.966;3.144;2023-05-16T11:38:01;1.60;;;0.70;;
17921;SDS011;9086;50.966;3.144;2023-05-16T11:40:27;3.70;;;0.87;;
17921;SDS011;9086;50.966;3.144;2023-05-16T11:42:53;1.40;;;0.67;;
17921;SDS011;9086;50.966;3.144;2023-05-16T11:45:20;2.77;;;0.63;;
17921;SDS011;9086;50.966;3.144;2023-05-16T11:47:49;3.07;;;0.83;;
17921;SDS011;9086;50.966;3.144;2023-05-16T11:50:16;0.73;;;0.50;;
17921;SDS011;9086;50.966;3.144;2023-05-16T11:52:43;6.17;;;0.90;;
17921;SDS011;9086;50.966;3.144;2023-05-16T11:55:09;1.93;;;0.60;;
17921;SDS011;9086;50.966;3.144;2023-05-16T11:57:40;1.52;;;0.75;;
17921;SDS011;9086;50.966;3.144;2023-05-16T12:00:13;1.30;;;0.70;;
17921;SDS011;9086;50.966;3.144;2023-05-16T12:02:45;2.83;;;1.00;;
17921;SDS011;9086;50.966;3.144;2023-05-16T12:05:15;2.37;;;0.80;;
17921;SDS011;9086;50.966;3.144;2023-05-16T12:07:42;2.30;;;0.80;;
17921;SDS011;9086;50.966;3.144;2023-05-16T12:10:11;1.73;;;0.67;;
17921;SDS011;9086;50.966;3.144;2023-05-16T12:12:39;3.22;;;1.15;;
17921;SDS011;9086;50.966;3.144;2023-05-16T12:15:06;3.13;;;0.70;;
17921;SDS011;9086;50.966;3.144;2023-05-16T12:17:34;2.10;;;1.00;;
17921;SDS011;9086;50.966;3.144;2023-05-16T12:20:00;2.63;;;1.08;;
17921;SDS011;9086;50.966;3.144;2023-05-16T12:22:29;2.72;;;0.90;;
17921;SDS011;9086;50.966;3.144;2023-05-16T12:24:57;6.38;;;1.08;;
17921;SDS011;9086;50.966;3.144;2023-05-16T12:27:24;1.73;;;0.70;;
17921;SDS011;9086;50.966;3.144;2023-05-16T12:29:50;2.63;;;0.88;;
17921;SDS011;9086;50.966;3.144;2023-05-16T12:32:22;2.23;;;0.70;;
17921;SDS011;9086;50.966;3.144;2023-05-16T12:34:48;1.73;;;0.60;;
17921;SDS011;9086;50.966;3.144;2023-05-16T12:37:19;4.00;;;0.80;;
17921;SDS011;9086;50.966;3.144;2023-05-16T12:39:45;3.13;;;1.00;;
17921;SDS011;9086;50.966;3.144;2023-05-16T12:42:12;3.17;;;0.80;;
17921;SDS011;9086;50.966;3.144;2023-05-16T12:44:38;1.57;;;0.73;;
17921;SDS011;9086;50.966;3.144;2023-05-16T12:47:13;4.70;;;1.25;;
17921;SDS011;9086;50.966;3.144;2023-05-16T12:49:45;3.53;;;0.80;;
17921;SDS011;9086;50.966;3.144;2023-05-16T12:52:18;5.07;;;0.93;;
17921;SDS011;9086;50.966;3.144;2023-05-16T12:54:45;2.40;;;0.90;;
17921;SDS011;9086;50.966;3.144;2023-05-16T12:57:11;4.85;;;1.13;;
17921;SDS011;9086;50.966;3.144;2023-05-16T12:59:37;1.00;;;0.40;;
17921;SDS011;9086;50.966;3.144;2023-05-16T13:02:03;1.37;;;0.60;;
17921;SDS011;9086;50.966;3.144;2023-05-16T13:04:29;13.17;;;2.90;;
17921;SDS011;9086;50.966;3.144;2023-05-16T13:06:56;5.13;;;1.70;;
17921;SDS011;9086;50.966;3.144;2023-05-16T13:09:22;1.30;;;0.70;;
17921;SDS011;9086;50.966;3.144;2023-05-16T13:11:48;2.27;;;0.60;;
17921;SDS011;9086;50.966;3.144;2023-05-16T13:14:15;2.53;;;0.73;;
17921;SDS011;9086;50.966;3.144;2023-05-16T13:16:44;5.67;;;1.10;;
17921;SDS011;9086;50.966;3.144;2023-05-16T13:19:10;1.83;;;0.83;;
17921;SDS011;9086;50.966;3.144;2023-05-16T13:21:36;3.57;;;1.03;;
17921;SDS011;9086;50.966;3.144;2023-05-16T13:24:02;3.90;;;1.00;;
17921;SDS011;9086;50.966;3.144;2023-05-16T13:26:28;1.40;;;0.70;;
17921;SDS011;9086;50.966;3.144;2023-05-16T13:28:54;3.93;;;1.00;;
17921;SDS011;9086;50.966;3.144;2023-05-16T13:31:20;3.40;;;0.90;;
17921;SDS011;9086;50.966;3.144;2023-05-16T13:33:46;2.77;;;0.80;;
17921;SDS011;9086;50.966;3.144;2023-05-16T13:36:13;0.70;;;0.70;;
17921;SDS011;9086;50.966;3.144;2023-05-16T13:38:39;2.47;;;0.87;;
17921;SDS011;9086;50.966;3.144;2023-05-16T13:41:08;1.80;;;0.80;;
17921;SDS011;9086;50.966;3.144;2023-05-16T13:43:34;1.53;;;0.80;;
17921;SDS011;9086;50.966;3.144;2023-05-16T13:46:00;1.37;;;0.70;;
17921;SDS011;9086;50.966;3.144;2023-05-16T13:48:26;1.73;;;0.50;;
17921;SDS011;9086;50.966;3.144;2023-05-16T13:50:52;2.73;;;1.03;;
17921;SDS011;9086;50.966;3.144;2023-05-16T13:53:19;5.03;;;1.17;;
17921;SDS011;9086;50.966;3.144;2023-05-16T13:55:45;4.43;;;0.70;;
17921;SDS011;9086;50.966;3.144;2023-05-16T13:58:11;2.17;;;0.70;;
17921;SDS011;9086;50.966;3.144;2023-05-16T14:00:37;3.60;;;0.60;;
17921;SDS011;9086;50.966;3.144;2023-05-16T14:03:03;1.83;;;0.53;;
17921;SDS011;9086;50.966;3.144;2023-05-16T14:05:29;3.13;;;0.70;;
17921;SDS011;9086;50.966;3.144;2023-05-16T14:07:55;2.43;;;0.97;;
17921;SDS011;9086;50.966;3.144;2023-05-16T14:10:21;0.90;;;0.70;;
17921;SDS011;9086;50.966;3.144;2023-05-16T14:12:47;5.07;;;1.17;;
17921;SDS011;9086;50.966;3.144;2023-05-16T14:15:13;2.27;;;0.83;;
17921;SDS011;9086;50.966;3.144;2023-05-16T14:17:41;1.27;;;0.60;;
17921;SDS011;9086;50.966;3.144;2023-05-16T14:20:07;1.73;;;0.80;;
17921;SDS011;9086;50.966;3.144;2023-05-16T14:22:34;2.63;;;0.87;;
17921;SDS011;9086;50.966;3.144;2023-05-16T14:25:00;2.47;;;0.77;;
17921;SDS011;9086;50.966;3.144;2023-05-16T14:27:26;2.60;;;0.97;;
17921;SDS011;9086;50.966;3.144;2023-05-16T14:29:52;1.77;;;0.70;;
17921;SDS011;9086;50.966;3.144;2023-05-16T14:32:18;2.93;;;0.77;;
17921;SDS011;9086;50.966;3.144;2023-05-16T14:34:44;3.57;;;1.03;;
17921;SDS011;9086;50.966;3.144;2023-05-16T14:37:10;1.23;;;0.83;;
17921;SDS011;9086;50.966;3.144;2023-05-16T14:39:38;2.50;;;0.93;;
17921;SDS011;9086;50.966;3.144;2023-05-16T14:42:04;3.60;;;0.97;;
17921;SDS011;9086;50.966;3.144;2023-05-16T14:44:30;3.40;;;0.80;;
17921;SDS011;9086;50.966;3.144;2023-05-16T14:46:56;2.23;;;0.83;;
17921;SDS011;9086;50.966;3.144;2023-05-16T14:49:22;2.77;;;0.80;;
17921;SDS011;9086;50.966;3.144;2023-05-16T14:51:48;1.80;;;0.90;;
17921;SDS011;9086;50.966;3.144;2023-05-16T14:54:15;4.33;;;0.90;;
17921;SDS011;9086;50.966;3.144;2023-05-16T14:56:41;3.50;;;0.90;;
17921;SDS011;9086;50.966;3.144;2023-05-16T14:59:07;2.57;;;0.93;;
17921;SDS011;9086;50.966;3.144;2023-05-16T15:01:33;2.03;;;0.80;;
17921;SDS011;9086;50.966;3.144;2023-05-16T15:03:59;1.30;;;0.60;;
17921;SDS011;9086;50.966;3.144;2023-05-16T15:06:25;1.30;;;0.70;;
17921;SDS011;9086;50.966;3.144;2023-05-16T15:08:52;3.17;;;0.87;;
17921;SDS011;9086;50.966;3.144;2023-05-16T15:11:18;2.43;;;0.60;;
17921;SDS011;9086;50.966;3.144;2023-05-16T15:13:44;2.20;;;0.70;;